Terminal Aerodrome Forecast
Issued by NWS Wakefield, VA

Home | Current Version | Previous Version | Text Only | Print | Product List | Glossary On
Versions: 1 2 3 4 5 6 7 8 9 10 11 12 13 14 15 16
000
FTUS41 KAKQ 032320
TAFRIC
TAF
KRIC 032320Z 0400/0424 18002KT P6SM SKC
     FM041500 22009G15KT P6SM SCT070
     FM042200 20005KT P6SM FEW100=

USA.gov is the U.S. government's official web portal to all federal, state and local government web resources and services.